sensor_id;sensor_type;location;lat;lon;timestamp;P1;durP1;ratioP1;P2;durP2;ratioP2
34007;SDS011;41085;51.594;7.138;2022-12-18T00:01:27;5.07;;;2.50;;
34007;SDS011;41085;51.594;7.138;2022-12-18T00:05:35;4.43;;;2.53;;
34007;SDS011;41085;51.594;7.138;2022-12-18T00:09:51;4.45;;;2.53;;
34007;SDS011;41085;51.594;7.138;2022-12-18T00:13:53;5.47;;;2.90;;
34007;SDS011;41085;51.594;7.138;2022-12-18T00:17:57;6.10;;;2.70;;
34007;SDS011;41085;51.594;7.138;2022-12-18T00:26:25;4.77;;;2.53;;
34007;SDS011;41085;51.594;7.138;2022-12-18T00:30:39;4.35;;;2.42;;
34007;SDS011;41085;51.594;7.138;2022-12-18T00:34:45;4.00;;;2.40;;
34007;SDS011;41085;51.594;7.138;2022-12-18T00:38:51;3.40;;;2.23;;
34007;SDS011;41085;51.594;7.138;2022-12-18T00:42:55;4.15;;;1.85;;
34007;SDS011;41085;51.594;7.138;2022-12-18T00:47:28;4.22;;;1.70;;
34007;SDS011;41085;51.594;7.138;2022-12-18T00:51:37;6.13;;;2.40;;
34007;SDS011;41085;51.594;7.138;2022-12-18T00:55:41;2.72;;;2.00;;
34007;SDS011;41085;51.594;7.138;2022-12-18T00:59:43;4.47;;;2.37;;
34007;SDS011;41085;51.594;7.138;2022-12-18T01:03:44;3.95;;;1.98;;
34007;SDS011;41085;51.594;7.138;2022-12-18T01:07:47;4.63;;;2.37;;
34007;SDS011;41085;51.594;7.138;2022-12-18T01:11:48;4.22;;;2.05;;
34007;SDS011;41085;51.594;7.138;2022-12-18T01:15:49;3.35;;;1.58;;
34007;SDS011;41085;51.594;7.138;2022-12-18T01:19:50;4.32;;;2.35;;
34007;SDS011;41085;51.594;7.138;2022-12-18T01:23:54;2.33;;;1.70;;
34007;SDS011;41085;51.594;7.138;2022-12-18T01:27:58;2.45;;;1.52;;
34007;SDS011;41085;51.594;7.138;2022-12-18T01:32:05;2.60;;;1.50;;
34007;SDS011;41085;51.594;7.138;2022-12-18T01:36:17;4.80;;;1.88;;
34007;SDS011;41085;51.594;7.138;2022-12-18T01:40:33;2.17;;;1.63;;
34007;SDS011;41085;51.594;7.138;2022-12-18T01:48:51;3.03;;;1.73;;
34007;SDS011;41085;51.594;7.138;2022-12-18T01:52:56;3.42;;;1.88;;
34007;SDS011;41085;51.594;7.138;2022-12-18T01:57:01;5.22;;;1.88;;
34007;SDS011;41085;51.594;7.138;2022-12-18T02:01:02;3.70;;;1.77;;
34007;SDS011;41085;51.594;7.138;2022-12-18T02:05:03;3.27;;;1.70;;
34007;SDS011;41085;51.594;7.138;2022-12-18T02:09:09;2.80;;;1.93;;
34007;SDS011;41085;51.594;7.138;2022-12-18T02:13:25;2.92;;;1.70;;
34007;SDS011;41085;51.594;7.138;2022-12-18T02:17:36;4.43;;;2.43;;
34007;SDS011;41085;51.594;7.138;2022-12-18T02:22:15;5.85;;;1.85;;
34007;SDS011;41085;51.594;7.138;2022-12-18T02:26:40;8.63;;;2.60;;
34007;SDS011;41085;51.594;7.138;2022-12-18T02:30:58;3.23;;;1.70;;
34007;SDS011;41085;51.594;7.138;2022-12-18T02:35:03;2.83;;;1.83;;
34007;SDS011;41085;51.594;7.138;2022-12-18T02:39:06;2.63;;;1.80;;
34007;SDS011;41085;51.594;7.138;2022-12-18T02:43:12;3.30;;;1.80;;
34007;SDS011;41085;51.594;7.138;2022-12-18T02:47:14;3.72;;;1.90;;
34007;SDS011;41085;51.594;7.138;2022-12-18T02:51:20;4.97;;;1.80;;
34007;SDS011;41085;51.594;7.138;2022-12-18T03:00:00;3.17;;;2.13;;
34007;SDS011;41085;51.594;7.138;2022-12-18T03:04:07;5.35;;;1.67;;
34007;SDS011;41085;51.594;7.138;2022-12-18T03:08:29;2.22;;;1.38;;
34007;SDS011;41085;51.594;7.138;2022-12-18T03:37:20;3.85;;;1.48;;
34007;SDS011;41085;51.594;7.138;2022-12-18T03:42:37;3.65;;;1.75;;
34007;SDS011;41085;51.594;7.138;2022-12-18T03:47:47;5.10;;;1.42;;
34007;SDS011;41085;51.594;7.138;2022-12-18T04:07:31;3.03;;;1.35;;
34007;SDS011;41085;51.594;7.138;2022-12-18T04:12:04;2.07;;;1.10;;
34007;SDS011;41085;51.594;7.138;2022-12-18T04:20:36;1.45;;;0.98;;
34007;SDS011;41085;51.594;7.138;2022-12-18T04:24:38;2.83;;;1.38;;
34007;SDS011;41085;51.594;7.138;2022-12-18T04:28:44;2.20;;;1.30;;
34007;SDS011;41085;51.594;7.138;2022-12-18T04:33:16;2.13;;;1.27;;
34007;SDS011;41085;51.594;7.138;2022-12-18T04:37:17;2.30;;;1.20;;
34007;SDS011;41085;51.594;7.138;2022-12-18T04:41:18;3.13;;;1.60;;
34007;SDS011;41085;51.594;7.138;2022-12-18T04:45:18;3.63;;;1.48;;
34007;SDS011;41085;51.594;7.138;2022-12-18T04:49:19;1.27;;;1.10;;
34007;SDS011;41085;51.594;7.138;2022-12-18T04:53:19;1.73;;;1.13;;
34007;SDS011;41085;51.594;7.138;2022-12-18T04:57:20;3.50;;;1.40;;
34007;SDS011;41085;51.594;7.138;2022-12-18T05:01:20;1.47;;;1.23;;
34007;SDS011;41085;51.594;7.138;2022-12-18T05:05:21;2.90;;;1.73;;
34007;SDS011;41085;51.594;7.138;2022-12-18T05:09:22;2.13;;;1.45;;
34007;SDS011;41085;51.594;7.138;2022-12-18T05:13:22;2.90;;;1.60;;
34007;SDS011;41085;51.594;7.138;2022-12-18T05:17:23;1.83;;;1.40;;
34007;SDS011;41085;51.594;7.138;2022-12-18T05:21:24;0.93;;;0.83;;
34007;SDS011;41085;51.594;7.138;2022-12-18T05:25:24;3.13;;;1.77;;
34007;SDS011;41085;51.594;7.138;2022-12-18T05:29:25;3.93;;;1.37;;
34007;SDS011;41085;51.594;7.138;2022-12-18T05:33:26;2.95;;;1.10;;
34007;SDS011;41085;51.594;7.138;2022-12-18T05:37:29;3.38;;;1.02;;
34007;SDS011;41085;51.594;7.138;2022-12-18T05:41:30;2.22;;;1.25;;
34007;SDS011;41085;51.594;7.138;2022-12-18T05:45:30;1.70;;;1.33;;
34007;SDS011;41085;51.594;7.138;2022-12-18T05:49:31;2.97;;;1.47;;
34007;SDS011;41085;51.594;7.138;2022-12-18T05:53:31;2.25;;;1.40;;
34007;SDS011;41085;51.594;7.138;2022-12-18T05:57:32;2.33;;;1.20;;
34007;SDS011;41085;51.594;7.138;2022-12-18T06:01:32;4.00;;;1.30;;
34007;SDS011;41085;51.594;7.138;2022-12-18T06:05:40;3.20;;;1.55;;
34007;SDS011;41085;51.594;7.138;2022-12-18T06:09:43;2.17;;;0.95;;
34007;SDS011;41085;51.594;7.138;2022-12-18T06:13:44;1.83;;;1.10;;
34007;SDS011;41085;51.594;7.138;2022-12-18T06:17:44;1.90;;;1.00;;
34007;SDS011;41085;51.594;7.138;2022-12-18T06:21:45;1.90;;;1.20;;
34007;SDS011;41085;51.594;7.138;2022-12-18T06:25:45;1.77;;;1.07;;
34007;SDS011;41085;51.594;7.138;2022-12-18T06:29:46;1.83;;;1.20;;
34007;SDS011;41085;51.594;7.138;2022-12-18T06:33:47;1.40;;;1.08;;
34007;SDS011;41085;51.594;7.138;2022-12-18T06:37:48;0.93;;;0.70;;
34007;SDS011;41085;51.594;7.138;2022-12-18T06:41:48;1.40;;;1.10;;
34007;SDS011;41085;51.594;7.138;2022-12-18T06:45:49;1.52;;;1.10;;
34007;SDS011;41085;51.594;7.138;2022-12-18T06:49:52;2.60;;;1.23;;
34007;SDS011;41085;51.594;7.138;2022-12-18T06:53:52;2.13;;;1.00;;
34007;SDS011;41085;51.594;7.138;2022-12-18T06:57:53;2.03;;;1.13;;
34007;SDS011;41085;51.594;7.138;2022-12-18T07:01:54;1.90;;;1.10;;
34007;SDS011;41085;51.594;7.138;2022-12-18T07:05:54;1.70;;;1.20;;
34007;SDS011;41085;51.594;7.138;2022-12-18T07:09:55;1.70;;;0.97;;
34007;SDS011;41085;51.594;7.138;2022-12-18T07:13:55;1.20;;;0.80;;
34007;SDS011;41085;51.594;7.138;2022-12-18T07:17:58;3.00;;;1.50;;
34007;SDS011;41085;51.594;7.138;2022-12-18T07:22:01;4.20;;;2.40;;
34007;SDS011;41085;51.594;7.138;2022-12-18T07:26:05;4.75;;;2.15;;
34007;SDS011;41085;51.594;7.138;2022-12-18T07:30:08;3.65;;;1.75;;
34007;SDS011;41085;51.594;7.138;2022-12-18T07:34:10;2.17;;;1.30;;
34007;SDS011;41085;51.594;7.138;2022-12-18T07:38:12;1.63;;;1.50;;
34007;SDS011;41085;51.594;7.138;2022-12-18T07:42:12;2.20;;;1.53;;
34007;SDS011;41085;51.594;7.138;2022-12-18T07:46:31;2.53;;;1.20;;
34007;SDS011;41085;51.594;7.138;2022-12-18T07:50:32;1.67;;;1.30;;
34007;SDS011;41085;51.594;7.138;2022-12-18T07:54:32;2.30;;;1.23;;
34007;SDS011;41085;51.594;7.138;2022-12-18T07:58:33;3.53;;;1.33;;
34007;SDS011;41085;51.594;7.138;2022-12-18T08:02:34;1.08;;;0.80;;
34007;SDS011;41085;51.594;7.138;2022-12-18T08:06:35;1.63;;;0.90;;
34007;SDS011;41085;51.594;7.138;2022-12-18T08:10:36;1.90;;;1.05;;
34007;SDS011;41085;51.594;7.138;2022-12-18T08:14:38;2.73;;;1.03;;
34007;SDS011;41085;51.594;7.138;2022-12-18T08:18:38;1.52;;;1.00;;
34007;SDS011;41085;51.594;7.138;2022-12-18T08:22:39;1.93;;;1.47;;
34007;SDS011;41085;51.594;7.138;2022-12-18T08:26:39;5.10;;;1.10;;
34007;SDS011;41085;51.594;7.138;2022-12-18T08:30:40;1.40;;;0.93;;
34007;SDS011;41085;51.594;7.138;2022-12-18T08:34:40;1.67;;;1.10;;
34007;SDS011;41085;51.594;7.138;2022-12-18T08:38:41;2.00;;;1.17;;
34007;SDS011;41085;51.594;7.138;2022-12-18T08:42:41;1.87;;;1.00;;
34007;SDS011;41085;51.594;7.138;2022-12-18T08:47:00;2.90;;;0.97;;
34007;SDS011;41085;51.594;7.138;2022-12-18T08:51:01;1.30;;;0.93;;
34007;SDS011;41085;51.594;7.138;2022-12-18T08:55:01;1.70;;;1.10;;
34007;SDS011;41085;51.594;7.138;2022-12-18T08:59:02;1.15;;;0.73;;
34007;SDS011;41085;51.594;7.138;2022-12-18T09:03:04;2.03;;;0.90;;
34007;SDS011;41085;51.594;7.138;2022-12-18T09:07:04;2.45;;;1.10;;
34007;SDS011;41085;51.594;7.138;2022-12-18T09:11:09;1.00;;;0.60;;
34007;SDS011;41085;51.594;7.138;2022-12-18T09:15:21;1.65;;;0.98;;
34007;SDS011;41085;51.594;7.138;2022-12-18T09:19:22;2.80;;;1.00;;
34007;SDS011;41085;51.594;7.138;2022-12-18T09:23:22;1.20;;;0.90;;
34007;SDS011;41085;51.594;7.138;2022-12-18T09:27:23;1.77;;;0.73;;
34007;SDS011;41085;51.594;7.138;2022-12-18T09:31:23;0.93;;;0.60;;
34007;SDS011;41085;51.594;7.138;2022-12-18T09:35:24;2.53;;;0.83;;
34007;SDS011;41085;51.594;7.138;2022-12-18T09:39:25;1.40;;;0.73;;
34007;SDS011;41085;51.594;7.138;2022-12-18T09:48:05;1.27;;;0.70;;
34007;SDS011;41085;51.594;7.138;2022-12-18T09:52:21;1.17;;;0.70;;
34007;SDS011;41085;51.594;7.138;2022-12-18T09:56:28;1.10;;;0.60;;
34007;SDS011;41085;51.594;7.138;2022-12-18T10:00:31;1.00;;;0.60;;
34007;SDS011;41085;51.594;7.138;2022-12-18T10:04:32;1.50;;;0.90;;
34007;SDS011;41085;51.594;7.138;2022-12-18T10:08:35;0.80;;;0.60;;
34007;SDS011;41085;51.594;7.138;2022-12-18T10:12:49;0.82;;;0.70;;
34007;SDS011;41085;51.594;7.138;2022-12-18T10:17:05;0.82;;;0.50;;
34007;SDS011;41085;51.594;7.138;2022-12-18T10:21:18;1.08;;;0.60;;
34007;SDS011;41085;51.594;7.138;2022-12-18T10:25:28;1.77;;;0.90;;
34007;SDS011;41085;51.594;7.138;2022-12-18T10:29:30;1.30;;;0.77;;
34007;SDS011;41085;51.594;7.138;2022-12-18T10:33:31;1.10;;;0.87;;
34007;SDS011;41085;51.594;7.138;2022-12-18T10:37:33;1.27;;;0.90;;
34007;SDS011;41085;51.594;7.138;2022-12-18T10:41:33;1.47;;;0.93;;
34007;SDS011;41085;51.594;7.138;2022-12-18T10:45:34;1.38;;;0.77;;
34007;SDS011;41085;51.594;7.138;2022-12-18T10:49:35;1.10;;;0.70;;
34007;SDS011;41085;51.594;7.138;2022-12-18T10:53:59;1.10;;;0.60;;
34007;SDS011;41085;51.594;7.138;2022-12-18T10:58:20;1.42;;;0.50;;
34007;SDS011;41085;51.594;7.138;2022-12-18T11:02:34;0.75;;;0.73;;
34007;SDS011;41085;51.594;7.138;2022-12-18T11:06:52;0.73;;;0.43;;
34007;SDS011;41085;51.594;7.138;2022-12-18T11:10:53;1.13;;;0.73;;
34007;SDS011;41085;51.594;7.138;2022-12-18T11:14:54;0.82;;;0.57;;
34007;SDS011;41085;51.594;7.138;2022-12-18T11:19:09;0.43;;;0.40;;
34007;SDS011;41085;51.594;7.138;2022-12-18T11:23:20;0.80;;;0.80;;
34007;SDS011;41085;51.594;7.138;2022-12-18T11:27:23;1.02;;;0.57;;
34007;SDS011;41085;51.594;7.138;2022-12-18T11:31:25;0.40;;;0.35;;
34007;SDS011;41085;51.594;7.138;2022-12-18T11:39:41;0.80;;;0.53;;
34007;SDS011;41085;51.594;7.138;2022-12-18T11:43:53;1.40;;;0.60;;
34007;SDS011;41085;51.594;7.138;2022-12-18T11:48:03;2.45;;;1.35;;
34007;SDS011;41085;51.594;7.138;2022-12-18T11:56:36;2.10;;;1.47;;
34007;SDS011;41085;51.594;7.138;2022-12-18T12:00:49;4.15;;;1.23;;
34007;SDS011;41085;51.594;7.138;2022-12-18T12:05:04;0.80;;;0.70;;
34007;SDS011;41085;51.594;7.138;2022-12-18T12:22:13;2.05;;;1.05;;
34007;SDS011;41085;51.594;7.138;2022-12-18T12:26:45;1.37;;;1.10;;
34007;SDS011;41085;51.594;7.138;2022-12-18T12:31:01;2.30;;;0.50;;
34007;SDS011;41085;51.594;7.138;2022-12-18T12:39:23;1.67;;;0.77;;
34007;SDS011;41085;51.594;7.138;2022-12-18T12:47:41;0.90;;;0.60;;
34007;SDS011;41085;51.594;7.138;2022-12-18T12:51:45;1.05;;;0.63;;
34007;SDS011;41085;51.594;7.138;2022-12-18T12:55:52;0.90;;;0.40;;
34007;SDS011;41085;51.594;7.138;2022-12-18T13:08:53;2.08;;;0.80;;
34007;SDS011;41085;51.594;7.138;2022-12-18T13:17:14;0.50;;;0.50;;
34007;SDS011;41085;51.594;7.138;2022-12-18T13:21:19;1.08;;;0.60;;
34007;SDS011;41085;51.594;7.138;2022-12-18T13:25:35;0.73;;;0.50;;
34007;SDS011;41085;51.594;7.138;2022-12-18T13:29:41;1.17;;;0.53;;
34007;SDS011;41085;51.594;7.138;2022-12-18T13:33:43;0.47;;;0.47;;
34007;SDS011;41085;51.594;7.138;2022-12-18T13:37:51;1.53;;;0.83;;
34007;SDS011;41085;51.594;7.138;2022-12-18T13:41:53;4.60;;;0.50;;
34007;SDS011;41085;51.594;7.138;2022-12-18T13:46:43;0.52;;;0.43;;
34007;SDS011;41085;51.594;7.138;2022-12-18T13:50:52;0.65;;;0.50;;
34007;SDS011;41085;51.594;7.138;2022-12-18T13:55:01;1.27;;;0.65;;
34007;SDS011;41085;51.594;7.138;2022-12-18T14:03:22;0.95;;;0.55;;
34007;SDS011;41085;51.594;7.138;2022-12-18T14:07:26;0.88;;;0.60;;
34007;SDS011;41085;51.594;7.138;2022-12-18T14:11:29;1.23;;;0.50;;
34007;SDS011;41085;51.594;7.138;2022-12-18T14:15:34;1.83;;;0.90;;
34007;SDS011;41085;51.594;7.138;2022-12-18T14:19:47;0.57;;;0.30;;
34007;SDS011;41085;51.594;7.138;2022-12-18T14:24:02;0.80;;;0.70;;
34007;SDS011;41085;51.594;7.138;2022-12-18T14:28:13;2.22;;;0.60;;
34007;SDS011;41085;51.594;7.138;2022-12-18T14:32:16;0.57;;;0.47;;
34007;SDS011;41085;51.594;7.138;2022-12-18T14:36:27;0.40;;;0.30;;
34007;SDS011;41085;51.594;7.138;2022-12-18T14:40:29;0.60;;;0.50;;
34007;SDS011;41085;51.594;7.138;2022-12-18T14:44:29;1.40;;;0.60;;
34007;SDS011;41085;51.594;7.138;2022-12-18T14:52:38;0.57;;;0.40;;
34007;SDS011;41085;51.594;7.138;2022-12-18T14:56:43;0.80;;;0.40;;
34007;SDS011;41085;51.594;7.138;2022-12-18T15:00:46;0.52;;;0.20;;
34007;SDS011;41085;51.594;7.138;2022-12-18T15:04:46;0.53;;;0.43;;
34007;SDS011;41085;51.594;7.138;2022-12-18T15:08:47;0.95;;;0.65;;
34007;SDS011;41085;51.594;7.138;2022-12-18T15:12:49;0.40;;;0.40;;
34007;SDS011;41085;51.594;7.138;2022-12-18T15:16:56;3.17;;;0.55;;
34007;SDS011;41085;51.594;7.138;2022-12-18T15:20:59;1.23;;;0.73;;
34007;SDS011;41085;51.594;7.138;2022-12-18T15:25:32;0.77;;;0.50;;
34007;SDS011;41085;51.594;7.138;2022-12-18T15:29:36;0.88;;;0.40;;
34007;SDS011;41085;51.594;7.138;2022-12-18T15:33:41;0.47;;;0.37;;
34007;SDS011;41085;51.594;7.138;2022-12-18T15:37:44;0.98;;;0.52;;
34007;SDS011;41085;51.594;7.138;2022-12-18T15:41:44;2.15;;;0.70;;
34007;SDS011;41085;51.594;7.138;2022-12-18T15:46:06;0.65;;;0.52;;
34007;SDS011;41085;51.594;7.138;2022-12-18T15:50:10;1.17;;;0.70;;
34007;SDS011;41085;51.594;7.138;2022-12-18T15:54:11;1.30;;;0.50;;
34007;SDS011;41085;51.594;7.138;2022-12-18T15:58:15;0.60;;;0.47;;
34007;SDS011;41085;51.594;7.138;2022-12-18T16:02:17;1.00;;;0.40;;
34007;SDS011;41085;51.594;7.138;2022-12-18T16:06:18;0.80;;;0.22;;
34007;SDS011;41085;51.594;7.138;2022-12-18T16:10:18;0.67;;;0.53;;
34007;SDS011;41085;51.594;7.138;2022-12-18T16:18:26;0.93;;;0.77;;
34007;SDS011;41085;51.594;7.138;2022-12-18T16:22:27;0.43;;;0.23;;
34007;SDS011;41085;51.594;7.138;2022-12-18T16:26:29;0.50;;;0.40;;
34007;SDS011;41085;51.594;7.138;2022-12-18T16:30:31;1.45;;;0.60;;
